sensor_id;sensor_type;location;lat;lon;timestamp;P1;durP1;ratioP1;P2;durP2;ratioP2
55288;SDS011;41154;45.394;5.734;2024-02-15T00:00:21;44.75;;;19.67;;
55288;SDS011;41154;45.394;5.734;2024-02-15T00:02:47;39.53;;;18.00;;
55288;SDS011;41154;45.394;5.734;2024-02-15T00:05:13;34.85;;;16.50;;
55288;SDS011;41154;45.394;5.734;2024-02-15T00:07:41;34.10;;;15.90;;
55288;SDS011;41154;45.394;5.734;2024-02-15T00:10:07;28.70;;;14.20;;
55288;SDS011;41154;45.394;5.734;2024-02-15T00:12:34;31.95;;;15.05;;
55288;SDS011;41154;45.394;5.734;2024-02-15T00:14:59;27.55;;;12.85;;
55288;SDS011;41154;45.394;5.734;2024-02-15T00:17:26;29.50;;;14.48;;
55288;SDS011;41154;45.394;5.734;2024-02-15T00:19:54;31.52;;;13.57;;
55288;SDS011;41154;45.394;5.734;2024-02-15T00:22:20;32.38;;;15.10;;
55288;SDS011;41154;45.394;5.734;2024-02-15T00:24:46;26.92;;;13.32;;
55288;SDS011;41154;45.394;5.734;2024-02-15T00:27:16;27.98;;;13.70;;
55288;SDS011;41154;45.394;5.734;2024-02-15T00:29:42;25.70;;;13.05;;
55288;SDS011;41154;45.394;5.734;2024-02-15T00:32:08;30.05;;;13.98;;
55288;SDS011;41154;45.394;5.734;2024-02-15T00:34:36;45.63;;;19.42;;
55288;SDS011;41154;45.394;5.734;2024-02-15T00:37:02;45.25;;;19.30;;
55288;SDS011;41154;45.394;5.734;2024-02-15T00:39:27;57.60;;;26.25;;
55288;SDS011;41154;45.394;5.734;2024-02-15T00:41:53;33.70;;;13.98;;
55288;SDS011;41154;45.394;5.734;2024-02-15T00:44:21;28.65;;;13.77;;
55288;SDS011;41154;45.394;5.734;2024-02-15T00:46:46;29.63;;;12.88;;
55288;SDS011;41154;45.394;5.734;2024-02-15T00:49:13;29.17;;;13.13;;
55288;SDS011;41154;45.394;5.734;2024-02-15T00:51:38;23.77;;;12.43;;
55288;SDS011;41154;45.394;5.734;2024-02-15T00:54:04;26.83;;;13.50;;
55288;SDS011;41154;45.394;5.734;2024-02-15T00:56:29;24.67;;;11.32;;
55288;SDS011;41154;45.394;5.734;2024-02-15T00:58:56;24.15;;;10.45;;
55288;SDS011;41154;45.394;5.734;2024-02-15T01:01:22;23.58;;;10.30;;
55288;SDS011;41154;45.394;5.734;2024-02-15T01:03:47;23.50;;;10.60;;
55288;SDS011;41154;45.394;5.734;2024-02-15T01:06:13;20.10;;;9.30;;
55288;SDS011;41154;45.394;5.734;2024-02-15T01:08:38;18.30;;;9.52;;
55288;SDS011;41154;45.394;5.734;2024-02-15T01:11:04;20.13;;;9.82;;
55288;SDS011;41154;45.394;5.734;2024-02-15T01:13:29;21.08;;;9.73;;
55288;SDS011;41154;45.394;5.734;2024-02-15T01:15:55;19.02;;;9.93;;
55288;SDS011;41154;45.394;5.734;2024-02-15T01:18:21;20.85;;;9.77;;
55288;SDS011;41154;45.394;5.734;2024-02-15T01:20:46;20.30;;;10.45;;
55288;SDS011;41154;45.394;5.734;2024-02-15T01:23:12;18.80;;;9.85;;
55288;SDS011;41154;45.394;5.734;2024-02-15T01:25:37;18.80;;;9.25;;
55288;SDS011;41154;45.394;5.734;2024-02-15T01:28:05;20.85;;;10.80;;
55288;SDS011;41154;45.394;5.734;2024-02-15T01:30:30;25.60;;;10.77;;
55288;SDS011;41154;45.394;5.734;2024-02-15T01:32:57;26.88;;;10.70;;
55288;SDS011;41154;45.394;5.734;2024-02-15T01:35:25;23.73;;;11.25;;
55288;SDS011;41154;45.394;5.734;2024-02-15T01:37:50;22.70;;;11.82;;
55288;SDS011;41154;45.394;5.734;2024-02-15T01:40:16;24.17;;;11.73;;
55288;SDS011;41154;45.394;5.734;2024-02-15T01:42:42;23.77;;;11.05;;
55288;SDS011;41154;45.394;5.734;2024-02-15T01:45:09;22.05;;;11.07;;
55288;SDS011;41154;45.394;5.734;2024-02-15T01:47:37;23.38;;;11.27;;
55288;SDS011;41154;45.394;5.734;2024-02-15T01:50:03;24.88;;;10.90;;
55288;SDS011;41154;45.394;5.734;2024-02-15T01:52:28;21.33;;;10.57;;
55288;SDS011;41154;45.394;5.734;2024-02-15T01:54:54;21.30;;;11.50;;
55288;SDS011;41154;45.394;5.734;2024-02-15T01:57:20;18.27;;;10.27;;
55288;SDS011;41154;45.394;5.734;2024-02-15T01:59:52;19.73;;;10.27;;
55288;SDS011;41154;45.394;5.734;2024-02-15T02:02:18;18.73;;;10.10;;
55288;SDS011;41154;45.394;5.734;2024-02-15T02:04:46;17.45;;;10.07;;
55288;SDS011;41154;45.394;5.734;2024-02-15T02:07:11;17.58;;;9.68;;
55288;SDS011;41154;45.394;5.734;2024-02-15T02:09:37;19.02;;;9.77;;
55288;SDS011;41154;45.394;5.734;2024-02-15T02:12:03;18.58;;;9.88;;
55288;SDS011;41154;45.394;5.734;2024-02-15T02:14:29;20.73;;;10.10;;
55288;SDS011;41154;45.394;5.734;2024-02-15T02:16:54;18.15;;;9.57;;
55288;SDS011;41154;45.394;5.734;2024-02-15T02:19:20;19.02;;;9.25;;
55288;SDS011;41154;45.394;5.734;2024-02-15T02:21:46;20.95;;;8.73;;
55288;SDS011;41154;45.394;5.734;2024-02-15T02:24:18;17.92;;;9.40;;
55288;SDS011;41154;45.394;5.734;2024-02-15T02:26:46;21.25;;;8.93;;
55288;SDS011;41154;45.394;5.734;2024-02-15T02:29:13;14.32;;;8.07;;
55288;SDS011;41154;45.394;5.734;2024-02-15T02:31:39;14.70;;;8.43;;
55288;SDS011;41154;45.394;5.734;2024-02-15T02:34:05;14.43;;;7.28;;
55288;SDS011;41154;45.394;5.734;2024-02-15T02:36:32;16.45;;;7.22;;
55288;SDS011;41154;45.394;5.734;2024-02-15T02:38:58;14.60;;;7.80;;
55288;SDS011;41154;45.394;5.734;2024-02-15T02:41:28;14.05;;;8.32;;
55288;SDS011;41154;45.394;5.734;2024-02-15T02:43:56;17.95;;;9.45;;
55288;SDS011;41154;45.394;5.734;2024-02-15T02:46:22;15.13;;;7.72;;
55288;SDS011;41154;45.394;5.734;2024-02-15T02:48:48;19.50;;;8.40;;
55288;SDS011;41154;45.394;5.734;2024-02-15T02:51:14;14.50;;;8.32;;
55288;SDS011;41154;45.394;5.734;2024-02-15T02:53:40;15.30;;;8.13;;
55288;SDS011;41154;45.394;5.734;2024-02-15T02:56:06;15.63;;;8.45;;
55288;SDS011;41154;45.394;5.734;2024-02-15T02:58:33;16.63;;;7.15;;
55288;SDS011;41154;45.394;5.734;2024-02-15T03:00:59;18.90;;;8.32;;
55288;SDS011;41154;45.394;5.734;2024-02-15T03:03:25;17.05;;;8.18;;
55288;SDS011;41154;45.394;5.734;2024-02-15T03:05:51;24.40;;;9.95;;
55288;SDS011;41154;45.394;5.734;2024-02-15T03:08:16;19.38;;;8.60;;
55288;SDS011;41154;45.394;5.734;2024-02-15T03:10:46;19.33;;;9.70;;
55288;SDS011;41154;45.394;5.734;2024-02-15T03:13:11;18.95;;;10.15;;
55288;SDS011;41154;45.394;5.734;2024-02-15T03:15:37;19.83;;;9.77;;
55288;SDS011;41154;45.394;5.734;2024-02-15T03:18:03;18.50;;;9.95;;
55288;SDS011;41154;45.394;5.734;2024-02-15T03:20:37;20.77;;;9.77;;
55288;SDS011;41154;45.394;5.734;2024-02-15T03:23:02;19.15;;;8.88;;
55288;SDS011;41154;45.394;5.734;2024-02-15T03:25:28;17.98;;;8.98;;
55288;SDS011;41154;45.394;5.734;2024-02-15T03:27:57;15.15;;;8.35;;
55288;SDS011;41154;45.394;5.734;2024-02-15T03:30:24;15.88;;;9.10;;
55288;SDS011;41154;45.394;5.734;2024-02-15T03:32:49;19.08;;;9.43;;
55288;SDS011;41154;45.394;5.734;2024-02-15T03:35:18;16.52;;;8.82;;
55288;SDS011;41154;45.394;5.734;2024-02-15T03:37:44;18.10;;;8.50;;
55288;SDS011;41154;45.394;5.734;2024-02-15T03:40:10;16.38;;;9.02;;
55288;SDS011;41154;45.394;5.734;2024-02-15T03:42:36;21.35;;;8.75;;
55288;SDS011;41154;45.394;5.734;2024-02-15T03:45:04;16.33;;;9.25;;
55288;SDS011;41154;45.394;5.734;2024-02-15T03:47:33;17.60;;;8.77;;
55288;SDS011;41154;45.394;5.734;2024-02-15T03:50:00;16.05;;;8.63;;
55288;SDS011;41154;45.394;5.734;2024-02-15T03:52:25;18.70;;;9.25;;
55288;SDS011;41154;45.394;5.734;2024-02-15T03:54:50;16.00;;;7.82;;
55288;SDS011;41154;45.394;5.734;2024-02-15T03:57:17;16.30;;;8.45;;
55288;SDS011;41154;45.394;5.734;2024-02-15T03:59:46;18.52;;;8.73;;
55288;SDS011;41154;45.394;5.734;2024-02-15T04:02:15;17.38;;;9.32;;
55288;SDS011;41154;45.394;5.734;2024-02-15T04:04:41;15.77;;;8.50;;
55288;SDS011;41154;45.394;5.734;2024-02-15T04:07:08;13.65;;;7.85;;
55288;SDS011;41154;45.394;5.734;2024-02-15T04:09:35;14.75;;;8.50;;
55288;SDS011;41154;45.394;5.734;2024-02-15T04:12:01;14.85;;;8.15;;
55288;SDS011;41154;45.394;5.734;2024-02-15T04:14:26;14.73;;;8.25;;
55288;SDS011;41154;45.394;5.734;2024-02-15T04:16:52;16.25;;;9.57;;
55288;SDS011;41154;45.394;5.734;2024-02-15T04:19:18;18.65;;;9.50;;
55288;SDS011;41154;45.394;5.734;2024-02-15T04:21:45;20.48;;;10.32;;
55288;SDS011;41154;45.394;5.734;2024-02-15T04:24:11;17.90;;;9.63;;
55288;SDS011;41154;45.394;5.734;2024-02-15T04:26:37;20.30;;;8.80;;
55288;SDS011;41154;45.394;5.734;2024-02-15T04:29:03;18.52;;;9.63;;
55288;SDS011;41154;45.394;5.734;2024-02-15T04:31:29;18.35;;;10.10;;
55288;SDS011;41154;45.394;5.734;2024-02-15T04:33:55;19.27;;;10.70;;
55288;SDS011;41154;45.394;5.734;2024-02-15T04:36:23;19.17;;;10.25;;
55288;SDS011;41154;45.394;5.734;2024-02-15T04:38:50;20.30;;;9.05;;
55288;SDS011;41154;45.394;5.734;2024-02-15T04:41:16;22.83;;;9.90;;
55288;SDS011;41154;45.394;5.734;2024-02-15T04:43:51;15.38;;;8.57;;
55288;SDS011;41154;45.394;5.734;2024-02-15T04:46:17;16.85;;;8.80;;
55288;SDS011;41154;45.394;5.734;2024-02-15T04:48:46;19.17;;;8.82;;
55288;SDS011;41154;45.394;5.734;2024-02-15T04:51:12;17.58;;;9.18;;
55288;SDS011;41154;45.394;5.734;2024-02-15T04:53:37;18.70;;;9.30;;
55288;SDS011;41154;45.394;5.734;2024-02-15T04:56:05;18.23;;;9.32;;
55288;SDS011;41154;45.394;5.734;2024-02-15T04:58:35;16.00;;;9.82;;
55288;SDS011;41154;45.394;5.734;2024-02-15T05:01:02;16.95;;;9.48;;
55288;SDS011;41154;45.394;5.734;2024-02-15T05:03:32;17.40;;;9.88;;
55288;SDS011;41154;45.394;5.734;2024-02-15T05:06:00;20.17;;;9.90;;
55288;SDS011;41154;45.394;5.734;2024-02-15T05:08:26;22.33;;;10.82;;
55288;SDS011;41154;45.394;5.734;2024-02-15T05:10:51;21.48;;;10.75;;
55288;SDS011;41154;45.394;5.734;2024-02-15T05:13:23;24.60;;;11.77;;
55288;SDS011;41154;45.394;5.734;2024-02-15T05:15:49;24.98;;;11.68;;
55288;SDS011;41154;45.394;5.734;2024-02-15T05:18:15;23.58;;;13.00;;
55288;SDS011;41154;45.394;5.734;2024-02-15T05:20:42;23.13;;;12.75;;
55288;SDS011;41154;45.394;5.734;2024-02-15T05:23:07;25.20;;;14.20;;
55288;SDS011;41154;45.394;5.734;2024-02-15T05:25:33;29.52;;;13.85;;
55288;SDS011;41154;45.394;5.734;2024-02-15T05:28:00;28.92;;;13.75;;
55288;SDS011;41154;45.394;5.734;2024-02-15T05:30:26;24.23;;;12.90;;
55288;SDS011;41154;45.394;5.734;2024-02-15T05:32:51;24.38;;;12.05;;
55288;SDS011;41154;45.394;5.734;2024-02-15T05:35:18;22.77;;;12.80;;
55288;SDS011;41154;45.394;5.734;2024-02-15T05:37:43;31.58;;;13.02;;
55288;SDS011;41154;45.394;5.734;2024-02-15T05:40:09;26.77;;;12.52;;
55288;SDS011;41154;45.394;5.734;2024-02-15T05:42:41;30.77;;;15.27;;
55288;SDS011;41154;45.394;5.734;2024-02-15T05:45:41;25.23;;;11.85;;
55288;SDS011;41154;45.394;5.734;2024-02-15T05:48:03;22.20;;;11.73;;
55288;SDS011;41154;45.394;5.734;2024-02-15T05:50:31;21.05;;;10.05;;
55288;SDS011;41154;45.394;5.734;2024-02-15T05:52:57;20.50;;;9.05;;
55288;SDS011;41154;45.394;5.734;2024-02-15T05:55:24;18.75;;;9.25;;
55288;SDS011;41154;45.394;5.734;2024-02-15T05:57:51;26.10;;;10.85;;
55288;SDS011;41154;45.394;5.734;2024-02-15T06:00:17;23.75;;;11.65;;
55288;SDS011;41154;45.394;5.734;2024-02-15T06:02:44;20.42;;;11.18;;
55288;SDS011;41154;45.394;5.734;2024-02-15T06:05:09;22.38;;;11.40;;
55288;SDS011;41154;45.394;5.734;2024-02-15T06:07:35;22.83;;;11.80;;
55288;SDS011;41154;45.394;5.734;2024-02-15T06:10:01;20.95;;;10.27;;
55288;SDS011;41154;45.394;5.734;2024-02-15T06:12:28;21.63;;;11.65;;
55288;SDS011;41154;45.394;5.734;2024-02-15T06:14:54;21.50;;;10.48;;
55288;SDS011;41154;45.394;5.734;2024-02-15T06:17:20;20.25;;;10.48;;
55288;SDS011;41154;45.394;5.734;2024-02-15T06:19:45;17.90;;;9.45;;
55288;SDS011;41154;45.394;5.734;2024-02-15T06:22:11;22.23;;;11.43;;
55288;SDS011;41154;45.394;5.734;2024-02-15T06:24:37;23.02;;;11.43;;
55288;SDS011;41154;45.394;5.734;2024-02-15T06:27:03;21.63;;;10.95;;
55288;SDS011;41154;45.394;5.734;2024-02-15T06:29:29;23.73;;;10.70;;
55288;SDS011;41154;45.394;5.734;2024-02-15T06:32:13;18.65;;;9.90;;
55288;SDS011;41154;45.394;5.734;2024-02-15T06:34:57;22.50;;;10.43;;
55288;SDS011;41154;45.394;5.734;2024-02-15T06:37:41;13.77;;;8.52;;
55288;SDS011;41154;45.394;5.734;2024-02-15T06:40:25;14.90;;;8.63;;
55288;SDS011;41154;45.394;5.734;2024-02-15T06:42:50;15.38;;;7.93;;
55288;SDS011;41154;45.394;5.734;2024-02-15T06:45:16;18.10;;;8.15;;
55288;SDS011;41154;45.394;5.734;2024-02-15T06:47:43;19.63;;;8.07;;
55288;SDS011;41154;45.394;5.734;2024-02-15T06:50:12;15.90;;;7.78;;
55288;SDS011;41154;45.394;5.734;2024-02-15T06:52:39;14.05;;;8.25;;
55288;SDS011;41154;45.394;5.734;2024-02-15T06:55:06;14.27;;;7.93;;
55288;SDS011;41154;45.394;5.734;2024-02-15T06:57:33;14.70;;;7.88;;
55288;SDS011;41154;45.394;5.734;2024-02-15T06:59:59;27.48;;;9.45;;
55288;SDS011;41154;45.394;5.734;2024-02-15T07:02:24;17.33;;;9.20;;
55288;SDS011;41154;45.394;5.734;2024-02-15T07:04:50;14.63;;;8.20;;
55288;SDS011;41154;45.394;5.734;2024-02-15T07:07:17;18.27;;;8.52;;
55288;SDS011;41154;45.394;5.734;2024-02-15T07:09:42;14.38;;;8.73;;
55288;SDS011;41154;45.394;5.734;2024-02-15T07:12:08;16.55;;;10.02;;
55288;SDS011;41154;45.394;5.734;2024-02-15T07:14:33;23.00;;;11.75;;
55288;SDS011;41154;45.394;5.734;2024-02-15T07:16:59;22.98;;;12.00;;
55288;SDS011;41154;45.394;5.734;2024-02-15T07:19:25;68.13;;;33.10;;
55288;SDS011;41154;45.394;5.734;2024-02-15T07:21:53;37.13;;;19.75;;
55288;SDS011;41154;45.394;5.734;2024-02-15T07:24:20;34.72;;;19.85;;
55288;SDS011;41154;45.394;5.734;2024-02-15T07:26:45;25.70;;;14.32;;
55288;SDS011;41154;45.394;5.734;2024-02-15T07:29:11;33.65;;;16.30;;
55288;SDS011;41154;45.394;5.734;2024-02-15T07:31:37;30.13;;;14.90;;
55288;SDS011;41154;45.394;5.734;2024-02-15T07:34:02;24.25;;;13.40;;
55288;SDS011;41154;45.394;5.734;2024-02-15T07:36:31;31.25;;;15.10;;
55288;SDS011;41154;45.394;5.734;2024-02-15T07:38:57;31.50;;;14.70;;
55288;SDS011;41154;45.394;5.734;2024-02-15T07:41:28;21.27;;;11.60;;
55288;SDS011;41154;45.394;5.734;2024-02-15T07:43:54;25.55;;;10.45;;
55288;SDS011;41154;45.394;5.734;2024-02-15T07:46:21;17.35;;;8.70;;
55288;SDS011;41154;45.394;5.734;2024-02-15T07:48:47;24.50;;;11.48;;
55288;SDS011;41154;45.394;5.734;2024-02-15T07:51:13;16.38;;;8.85;;
55288;SDS011;41154;45.394;5.734;2024-02-15T07:53:40;13.43;;;7.97;;
55288;SDS011;41154;45.394;5.734;2024-02-15T07:56:06;19.08;;;7.55;;
55288;SDS011;41154;45.394;5.734;2024-02-15T07:58:31;17.00;;;8.48;;
55288;SDS011;41154;45.394;5.734;2024-02-15T08:00:57;21.00;;;9.05;;
55288;SDS011;41154;45.394;5.734;2024-02-15T08:03:23;14.40;;;8.13;;
55288;SDS011;41154;45.394;5.734;2024-02-15T08:05:48;17.20;;;8.75;;
55288;SDS011;41154;45.394;5.734;2024-02-15T08:08:13;15.15;;;8.95;;
55288;SDS011;41154;45.394;5.734;2024-02-15T08:10:39;19.38;;;10.85;;
55288;SDS011;41154;45.394;5.734;2024-02-15T08:13:04;24.52;;;11.85;;
55288;SDS011;41154;45.394;5.734;2024-02-15T08:15:30;20.38;;;9.98;;
55288;SDS011;41154;45.394;5.734;2024-02-15T08:17:55;17.55;;;8.70;;
55288;SDS011;41154;45.394;5.734;2024-02-15T08:20:21;14.50;;;8.70;;
55288;SDS011;41154;45.394;5.734;2024-02-15T08:22:47;17.42;;;10.10;;
55288;SDS011;41154;45.394;5.734;2024-02-15T08:25:12;19.40;;;10.02;;
55288;SDS011;41154;45.394;5.734;2024-02-15T08:27:39;15.65;;;9.60;;
55288;SDS011;41154;45.394;5.734;2024-02-15T08:30:11;27.05;;;12.63;;
55288;SDS011;41154;45.394;5.734;2024-02-15T08:32:37;23.33;;;10.90;;
55288;SDS011;41154;45.394;5.734;2024-02-15T08:35:05;24.45;;;12.20;;
55288;SDS011;41154;45.394;5.734;2024-02-15T08:37:31;16.88;;;10.35;;
55288;SDS011;41154;45.394;5.734;2024-02-15T08:39:59;16.10;;;9.63;;
55288;SDS011;41154;45.394;5.734;2024-02-15T08:42:25;15.68;;;8.98;;
55288;SDS011;41154;45.394;5.734;2024-02-15T08:44:50;13.45;;;8.20;;
55288;SDS011;41154;45.394;5.734;2024-02-15T08:47:16;15.25;;;7.68;;
55288;SDS011;41154;45.394;5.734;2024-02-15T08:49:42;10.63;;;6.65;;
55288;SDS011;41154;45.394;5.734;2024-02-15T08:52:08;11.95;;;6.95;;
55288;SDS011;41154;45.394;5.734;2024-02-15T08:54:33;13.13;;;7.65;;
55288;SDS011;41154;45.394;5.734;2024-02-15T08:56:59;16.00;;;8.40;;
55288;SDS011;41154;45.394;5.734;2024-02-15T08:59:26;15.88;;;8.35;;
55288;SDS011;41154;45.394;5.734;2024-02-15T09:01:53;12.52;;;8.68;;
55288;SDS011;41154;45.394;5.734;2024-02-15T09:04:19;11.70;;;8.02;;
55288;SDS011;41154;45.394;5.734;2024-02-15T09:06:46;12.00;;;8.02;;
55288;SDS011;41154;45.394;5.734;2024-02-15T09:09:12;19.40;;;10.05;;
55288;SDS011;41154;45.394;5.734;2024-02-15T09:11:37;14.55;;;9.50;;
55288;SDS011;41154;45.394;5.734;2024-02-15T09:14:03;13.07;;;7.72;;
55288;SDS011;41154;45.394;5.734;2024-02-15T09:16:28;9.88;;;7.13;;
55288;SDS011;41154;45.394;5.734;2024-02-15T09:18:55;11.98;;;7.28;;
55288;SDS011;41154;45.394;5.734;2024-02-15T09:21:20;11.00;;;7.05;;
55288;SDS011;41154;45.394;5.734;2024-02-15T09:23:47;10.52;;;6.07;;
55288;SDS011;41154;45.394;5.734;2024-02-15T09:26:14;12.85;;;7.25;;
55288;SDS011;41154;45.394;5.734;2024-02-15T09:28:40;12.80;;;6.50;;
55288;SDS011;41154;45.394;5.734;2024-02-15T09:31:05;11.68;;;6.85;;
55288;SDS011;41154;45.394;5.734;2024-02-15T09:33:31;10.20;;;5.40;;
55288;SDS011;41154;45.394;5.734;2024-02-15T09:35:56;9.32;;;5.07;;
55288;SDS011;41154;45.394;5.734;2024-02-15T09:38:22;11.30;;;5.85;;
55288;SDS011;41154;45.394;5.734;2024-02-15T09:40:50;14.20;;;6.10;;
55288;SDS011;41154;45.394;5.734;2024-02-15T09:43:16;11.32;;;6.53;;
55288;SDS011;41154;45.394;5.734;2024-02-15T09:45:41;10.20;;;6.15;;
55288;SDS011;41154;45.394;5.734;2024-02-15T09:48:07;14.13;;;6.38;;
55288;SDS011;41154;45.394;5.734;2024-02-15T09:50:35;8.90;;;4.68;;
55288;SDS011;41154;45.394;5.734;2024-02-15T09:53:02;9.80;;;6.00;;
55288;SDS011;41154;45.394;5.734;2024-02-15T09:55:28;12.10;;;5.20;;
55288;SDS011;41154;45.394;5.734;2024-02-15T09:57:54;9.82;;;4.55;;
55288;SDS011;41154;45.394;5.734;2024-02-15T10:00:20;9.70;;;3.97;;
55288;SDS011;41154;45.394;5.734;2024-02-15T10:02:52;11.13;;;5.15;;
55288;SDS011;41154;45.394;5.734;2024-02-15T10:05:23;8.80;;;4.63;;
55288;SDS011;41154;45.394;5.734;2024-02-15T10:07:49;9.57;;;4.57;;
55288;SDS011;41154;45.394;5.734;2024-02-15T10:10:15;7.25;;;4.20;;
55288;SDS011;41154;45.394;5.734;2024-02-15T10:12:44;8.25;;;4.50;;
55288;SDS011;41154;45.394;5.734;2024-02-15T10:18:00;7.55;;;3.42;;
55288;SDS011;41154;45.394;5.734;2024-02-15T10:20:26;5.70;;;3.42;;
55288;SDS011;41154;45.394;5.734;2024-02-15T10:22:53;5.55;;;3.33;;
55288;SDS011;41154;45.394;5.734;2024-02-15T10:25:20;6.82;;;3.83;;
55288;SDS011;41154;45.394;5.734;2024-02-15T10:27:45;8.85;;;3.75;;
55288;SDS011;41154;45.394;5.734;2024-02-15T10:30:18;6.35;;;4.20;;
55288;SDS011;41154;45.394;5.734;2024-02-15T10:32:44;7.53;;;4.32;;
55288;SDS011;41154;45.394;5.734;2024-02-15T10:35:12;7.50;;;4.18;;
55288;SDS011;41154;45.394;5.734;2024-02-15T10:37:43;8.43;;;5.03;;
55288;SDS011;41154;45.394;5.734;2024-02-15T10:40:09;8.60;;;5.05;;
55288;SDS011;41154;45.394;5.734;2024-02-15T10:42:36;8.25;;;5.00;;
55288;SDS011;41154;45.394;5.734;2024-02-15T10:45:02;7.93;;;5.10;;
55288;SDS011;41154;45.394;5.734;2024-02-15T10:47:30;10.75;;;5.38;;
55288;SDS011;41154;45.394;5.734;2024-02-15T10:49:55;10.85;;;5.10;;
55288;SDS011;41154;45.394;5.734;2024-02-15T10:52:23;11.80;;;5.68;;
55288;SDS011;41154;45.394;5.734;2024-02-15T10:54:52;9.95;;;5.95;;
55288;SDS011;41154;45.394;5.734;2024-02-15T10:57:22;11.27;;;5.60;;
55288;SDS011;41154;45.394;5.734;2024-02-15T10:59:55;7.18;;;3.85;;
55288;SDS011;41154;45.394;5.734;2024-02-15T11:02:30;2.95;;;2.03;;
55288;SDS011;41154;45.394;5.734;2024-02-15T11:05:05;3.95;;;2.30;;
55288;SDS011;41154;45.394;5.734;2024-02-15T11:07:34;6.05;;;2.33;;
55288;SDS011;41154;45.394;5.734;2024-02-15T11:10:00;4.15;;;1.92;;
55288;SDS011;41154;45.394;5.734;2024-02-15T11:12:25;4.03;;;2.17;;
55288;SDS011;41154;45.394;5.734;2024-02-15T11:14:52;5.13;;;2.17;;
55288;SDS011;41154;45.394;5.734;2024-02-15T11:20:07;4.70;;;2.40;;
55288;SDS011;41154;45.394;5.734;2024-02-15T11:22:37;5.10;;;2.20;;
55288;SDS011;41154;45.394;5.734;2024-02-15T11:25:03;4.20;;;2.28;;
55288;SDS011;41154;45.394;5.734;2024-02-15T11:27:37;3.42;;;2.08;;
55288;SDS011;41154;45.394;5.734;2024-02-15T11:30:05;4.28;;;2.60;;
55288;SDS011;41154;45.394;5.734;2024-02-15T11:35:09;7.82;;;2.80;;
55288;SDS011;41154;45.394;5.734;2024-02-15T11:37:59;6.22;;;2.80;;
55288;SDS011;41154;45.394;5.734;2024-02-15T11:46:00;7.33;;;2.90;;
55288;SDS011;41154;45.394;5.734;2024-02-15T11:48:25;4.18;;;2.67;;
55288;SDS011;41154;45.394;5.734;2024-02-15T11:50:51;6.30;;;3.15;;
55288;SDS011;41154;45.394;5.734;2024-02-15T11:53:16;5.85;;;3.53;;
55288;SDS011;41154;45.394;5.734;2024-02-15T11:55:43;4.78;;;2.92;;
55288;SDS011;41154;45.394;5.734;2024-02-15T11:58:10;9.18;;;4.00;;
55288;SDS011;41154;45.394;5.734;2024-02-15T12:00:44;9.18;;;3.97;;
55288;SDS011;41154;45.394;5.734;2024-02-15T12:03:28;5.13;;;3.30;;
55288;SDS011;41154;45.394;5.734;2024-02-15T12:06:17;5.78;;;3.58;;
55288;SDS011;41154;45.394;5.734;2024-02-15T12:09:01;7.70;;;3.75;;
55288;SDS011;41154;45.394;5.734;2024-02-15T12:11:45;7.85;;;3.88;;
55288;SDS011;41154;45.394;5.734;2024-02-15T12:14:29;6.35;;;3.33;;
55288;SDS011;41154;45.394;5.734;2024-02-15T12:17:13;6.70;;;2.90;;
55288;SDS011;41154;45.394;5.734;2024-02-15T12:20:00;5.63;;;3.05;;
55288;SDS011;41154;45.394;5.734;2024-02-15T12:22:27;6.88;;;3.30;;
55288;SDS011;41154;45.394;5.734;2024-02-15T12:27:20;4.93;;;3.28;;
55288;SDS011;41154;45.394;5.734;2024-02-15T12:29:51;4.35;;;2.40;;
55288;SDS011;41154;45.394;5.734;2024-02-15T12:32:21;5.65;;;2.70;;
55288;SDS011;41154;45.394;5.734;2024-02-15T12:34:46;5.25;;;2.78;;
55288;SDS011;41154;45.394;5.734;2024-02-15T12:37:12;5.00;;;3.05;;
55288;SDS011;41154;45.394;5.734;2024-02-15T12:39:38;5.38;;;3.15;;
55288;SDS011;41154;45.394;5.734;2024-02-15T12:42:03;4.05;;;3.05;;
55288;SDS011;41154;45.394;5.734;2024-02-15T12:44:32;6.88;;;2.95;;
55288;SDS011;41154;45.394;5.734;2024-02-15T12:46:59;4.75;;;2.92;;
55288;SDS011;41154;45.394;5.734;2024-02-15T12:51:52;5.72;;;2.75;;
55288;SDS011;41154;45.394;5.734;2024-02-15T12:54:20;4.90;;;2.70;;
55288;SDS011;41154;45.394;5.734;2024-02-15T12:56:46;4.80;;;2.70;;
55288;SDS011;41154;45.394;5.734;2024-02-15T12:59:14;3.63;;;2.40;;
55288;SDS011;41154;45.394;5.734;2024-02-15T13:01:39;5.68;;;2.60;;
55288;SDS011;41154;45.394;5.734;2024-02-15T13:04:05;6.82;;;3.13;;
55288;SDS011;41154;45.394;5.734;2024-02-15T13:06:31;6.05;;;3.20;;
55288;SDS011;41154;45.394;5.734;2024-02-15T13:12:29;6.55;;;3.20;;
55288;SDS011;41154;45.394;5.734;2024-02-15T13:14:54;7.07;;;3.65;;
55288;SDS011;41154;45.394;5.734;2024-02-15T13:17:20;9.13;;;3.83;;
55288;SDS011;41154;45.394;5.734;2024-02-15T13:19:45;7.07;;;3.15;;
55288;SDS011;41154;45.394;5.734;2024-02-15T13:22:16;4.78;;;2.90;;
55288;SDS011;41154;45.394;5.734;2024-02-15T13:24:44;5.60;;;2.72;;
55288;SDS011;41154;45.394;5.734;2024-02-15T13:27:09;4.50;;;2.45;;
55288;SDS011;41154;45.394;5.734;2024-02-15T13:29:38;5.28;;;2.58;;
55288;SDS011;41154;45.394;5.734;2024-02-15T13:32:05;3.33;;;2.20;;
55288;SDS011;41154;45.394;5.734;2024-02-15T13:34:31;4.28;;;2.40;;
55288;SDS011;41154;45.394;5.734;2024-02-15T13:36:58;4.70;;;2.47;;
55288;SDS011;41154;45.394;5.734;2024-02-15T13:39:27;6.90;;;2.60;;
55288;SDS011;41154;45.394;5.734;2024-02-15T13:41:58;6.30;;;2.58;;
55288;SDS011;41154;45.394;5.734;2024-02-15T13:44:24;8.10;;;2.88;;
55288;SDS011;41154;45.394;5.734;2024-02-15T13:46:49;4.93;;;2.58;;
55288;SDS011;41154;45.394;5.734;2024-02-15T13:49:15;4.93;;;2.63;;
55288;SDS011;41154;45.394;5.734;2024-02-15T13:51:40;5.30;;;2.90;;
55288;SDS011;41154;45.394;5.734;2024-02-15T13:54:06;5.03;;;2.72;;
55288;SDS011;41154;45.394;5.734;2024-02-15T13:56:33;5.30;;;3.17;;
55288;SDS011;41154;45.394;5.734;2024-02-15T13:58:59;6.70;;;3.05;;
55288;SDS011;41154;45.394;5.734;2024-02-15T14:01:24;5.30;;;2.65;;
55288;SDS011;41154;45.394;5.734;2024-02-15T14:03:50;5.03;;;2.63;;
55288;SDS011;41154;45.394;5.734;2024-02-15T14:06:17;4.90;;;2.20;;
55288;SDS011;41154;45.394;5.734;2024-02-15T14:08:43;6.57;;;2.40;;
55288;SDS011;41154;45.394;5.734;2024-02-15T14:11:08;3.58;;;2.10;;
55288;SDS011;41154;45.394;5.734;2024-02-15T14:13:34;6.07;;;2.45;;
55288;SDS011;41154;45.394;5.734;2024-02-15T14:16:01;3.88;;;2.35;;
55288;SDS011;41154;45.394;5.734;2024-02-15T14:18:28;4.82;;;2.78;;
55288;SDS011;41154;45.394;5.734;2024-02-15T14:20:54;5.28;;;4.25;;
55288;SDS011;41154;45.394;5.734;2024-02-15T14:23:19;4.75;;;3.17;;
55288;SDS011;41154;45.394;5.734;2024-02-15T14:25:45;6.47;;;2.78;;
55288;SDS011;41154;45.394;5.734;2024-02-15T14:28:11;5.93;;;3.15;;
55288;SDS011;41154;45.394;5.734;2024-02-15T14:30:36;6.20;;;3.15;;
55288;SDS011;41154;45.394;5.734;2024-02-15T14:33:20;4.93;;;2.67;;
55288;SDS011;41154;45.394;5.734;2024-02-15T14:35:47;7.20;;;2.83;;
55288;SDS011;41154;45.394;5.734;2024-02-15T14:38:13;5.35;;;3.70;;
55288;SDS011;41154;45.394;5.734;2024-02-15T14:40:41;4.18;;;2.78;;
55288;SDS011;41154;45.394;5.734;2024-02-15T14:43:08;4.30;;;2.63;;
55288;SDS011;41154;45.394;5.734;2024-02-15T14:45:37;4.90;;;2.78;;
55288;SDS011;41154;45.394;5.734;2024-02-15T14:48:03;5.75;;;2.75;;
55288;SDS011;41154;45.394;5.734;2024-02-15T14:50:29;3.70;;;2.42;;
55288;SDS011;41154;45.394;5.734;2024-02-15T14:52:55;7.22;;;2.85;;
55288;SDS011;41154;45.394;5.734;2024-02-15T14:55:21;3.80;;;2.33;;
55288;SDS011;41154;45.394;5.734;2024-02-15T14:57:47;5.45;;;2.83;;